Time;durP1;ratioP1;P1;durP2;ratioP2;P2;SDS_P1;SDS_P2;PMS_P1;PMS_P2;Temp;Humidity;BMP_temperature;BMP_pressure;BME280_temperature;BME280_humidity;BME280_pressure;Samples;Min_cycle;Max_cycle;Signal;HPM_P1;HPM_P2
2022/12/19 00:01:26;;;;;;;45.57;25.70;;;0.00;99.90;;;;;;5053673;28;20049;-25
2022/12/19 00:03:55;;;;;;;43.60;21.93;;;0.00;99.90;;;;;;5036117;28;20478;-25
2022/12/19 00:06:20;;;;;;;44.03;24.20;;;0.00;99.90;;;;;;5053379;28;20449;-25
2022/12/19 00:08:49;;;;;;;40.93;22.50;;;0.20;99.90;;;;;;5053711;28;20049;-25
2022/12/19 00:11:16;;;;;;;42.47;21.93;;;0.00;99.90;;;;;;5054472;28;20045;-25
2022/12/19 00:13:42;;;;;;;48.67;23.70;;;0.10;99.90;;;;;;5036196;28;20099;-25
2022/12/19 00:16:12;;;;;;;41.53;23.77;;;0.10;99.90;;;;;;5053427;28;20049;-25
2022/12/19 00:18:42;;;;;;;39.47;22.40;;;0.20;99.90;;;;;;5053244;28;20491;-25
2022/12/19 00:21:11;;;;;;;46.13;23.30;;;0.10;99.90;;;;;;5053737;28;20044;-25
2022/12/19 00:23:37;;;;;;;38.17;20.83;;;0.20;99.90;;;;;;5036033;28;20052;-25
2022/12/19 00:26:14;;;;;;;41.73;23.63;;;0.20;99.90;;;;;;5053496;28;20402;-25
2022/12/19 00:28:42;;;;;;;49.17;24.60;;;0.20;99.90;;;;;;5053451;28;20044;-25
2022/12/19 00:31:08;;;;;;;44.27;25.00;;;0.30;99.90;;;;;;5053438;28;20385;-25
2022/12/19 00:33:34;;;;;;;43.87;24.63;;;0.30;99.90;;;;;;5053382;28;20056;-25
2022/12/19 00:36:04;;;;;;;42.87;22.87;;;0.30;99.90;;;;;;5053395;28;20045;-25
2022/12/19 00:38:30;;;;;;;43.38;24.48;;;0.30;99.90;;;;;;5054178;28;20056;-26
2022/12/19 00:41:06;;;;;;;46.03;24.43;;;0.30;99.90;;;;;;5053262;28;20388;-26
2022/12/19 00:43:32;;;;;;;39.13;23.50;;;0.30;99.90;;;;;;5053914;28;20044;-25
2022/12/19 00:45:57;;;;;;;46.33;24.80;;;0.40;99.90;;;;;;5053547;28;20049;-25
2022/12/19 00:48:23;;;;;;;46.63;26.17;;;1.00;99.90;;;;;;5053239;28;20399;-25
2022/12/19 00:50:49;;;;;;;47.97;25.80;;;0.40;99.90;;;;;;5035473;28;20076;-25
2022/12/19 00:53:14;;;;;;;45.87;25.17;;;0.40;99.90;;;;;;5053292;28;20044;-25
2022/12/19 00:55:40;;;;;;;45.25;24.75;;;0.40;99.90;;;;;;5035204;28;20122;-26
2022/12/19 00:58:06;;;;;;;45.50;25.87;;;0.40;99.90;;;;;;5037681;28;20082;-26
2022/12/19 01:00:31;;;;;;;47.25;24.38;;;0.40;99.90;;;;;;5057057;28;20048;-25
2022/12/19 01:02:57;;;;;;;47.17;25.15;;;0.40;99.90;;;;;;5057033;28;20045;-26
2022/12/19 01:05:23;;;;;;;47.83;25.40;;;0.50;99.90;;;;;;5057004;28;20076;-26
2022/12/19 01:07:49;;;;;;;48.73;24.97;;;0.50;99.90;;;;;;5039208;28;20087;-25
2022/12/19 01:10:14;;;;;;;44.87;24.87;;;0.50;99.90;;;;;;5039763;28;20094;-25
2022/12/19 01:12:46;;;;;;;47.40;24.60;;;0.50;99.90;;;;;;5039098;28;20090;-26
2022/12/19 01:15:14;;;;;;;45.90;25.80;;;0.50;99.90;;;;;;5039647;28;20052;-25
2022/12/19 01:17:40;;;;;;;43.80;24.30;;;0.60;99.90;;;;;;5056800;28;20045;-25
2022/12/19 01:20:06;;;;;;;44.27;26.77;;;0.60;99.90;;;;;;5056764;28;20045;-26
2022/12/19 01:22:32;;;;;;;42.90;24.40;;;0.60;99.90;;;;;;5056953;28;20498;-25
2022/12/19 01:24:58;;;;;;;45.20;24.77;;;0.60;99.90;;;;;;5023499;28;20049;-26
2022/12/19 01:27:24;;;;;;;47.92;23.63;;;0.60;99.90;;;;;;5056638;28;20502;-25
2022/12/19 01:29:50;;;;;;;47.43;24.63;;;0.60;99.90;;;;;;5038764;28;20045;-25
2022/12/19 01:32:15;;;;;;;46.58;24.92;;;0.70;99.90;;;;;;5056534;28;20048;-26
2022/12/19 01:34:41;;;;;;;43.43;24.33;;;0.70;99.90;;;;;;5039147;28;20049;-26
2022/12/19 01:37:07;;;;;;;44.83;24.17;;;0.70;99.90;;;;;;5039427;28;20147;-26
2022/12/19 01:39:32;;;;;;;46.95;24.45;;;0.80;99.90;;;;;;5056478;28;20048;-26
2022/12/19 01:41:58;;;;;;;45.08;23.50;;;0.80;99.90;;;;;;5056323;28;20165;-26
2022/12/19 01:44:25;;;;;;;47.00;25.55;;;0.80;99.90;;;;;;5056359;28;20041;-26
2022/12/19 01:46:59;;;;;;;50.10;24.85;;;0.80;99.90;;;;;;5055979;28;20499;-26
2022/12/19 01:49:29;;;;;;;46.42;25.17;;;0.80;99.90;;;;;;5056261;28;20052;-26
2022/12/19 01:51:58;;;;;;;49.83;26.05;;;0.90;99.90;;;;;;5038681;28;20095;-26
2022/12/19 01:54:44;;;;;;;46.13;23.75;;;0.90;99.90;;;;;;5056119;28;20048;-26
2022/12/19 01:57:14;;;;;;;46.55;25.10;;;0.90;99.90;;;;;;5056255;28;20137;-26
2022/12/19 01:59:59;;;;;;;45.50;26.08;;;1.00;99.90;;;;;;5056313;28;20036;-26
2022/12/19 02:02:32;;;;;;;51.20;26.05;;;1.00;99.90;;;;;;5056240;28;20395;-26
2022/12/19 02:05:00;;;;;;;48.90;26.45;;;1.00;99.90;;;;;;5056495;28;20041;-26
2022/12/19 02:07:27;;;;;;;47.13;25.10;;;1.10;99.90;;;;;;5021829;28;20045;-26
2022/12/19 02:09:55;;;;;;;50.55;26.50;;;1.10;99.90;;;;;;5056303;28;20106;-26
2022/12/19 02:12:23;;;;;;;49.83;26.20;;;1.00;99.90;;;;;;5055776;28;20598;-26
2022/12/19 02:14:49;;;;;;;50.17;24.42;;;1.00;99.90;;;;;;5037983;28;20049;-26
2022/12/19 02:17:56;;;;;;;50.42;27.70;;;0.90;99.90;;;;;;5055664;28;20489;-26
2022/12/19 02:20:37;;;;;;;61.88;29.88;;;0.90;99.90;;;;;;5022108;28;20546;-26
2022/12/19 02:23:31;;;;;;;54.77;28.10;;;0.90;99.90;;;;;;5037941;28;20135;-26
2022/12/19 02:26:41;;;;;;;57.58;28.63;;;0.90;99.90;;;;;;5055505;28;20541;-26
2022/12/19 02:29:21;;;;;;;67.13;32.58;;;1.00;99.90;;;;;;5055996;28;20049;-26
2022/12/19 02:31:56;;;;;;;62.40;31.00;;;1.00;99.90;;;;;;5038501;28;20106;-26
2022/12/19 02:34:36;;;;;;;57.78;28.60;;;1.00;99.90;;;;;;5055437;28;20053;-26
2022/12/19 02:37:07;;;;;;;57.53;29.47;;;1.00;99.90;;;;;;5037839;28;20061;-26
2022/12/19 02:39:37;;;;;;;64.97;30.73;;;1.00;99.90;;;;;;5055284;28;20049;-26
2022/12/19 02:42:05;;;;;;;65.20;31.30;;;1.10;99.90;;;;;;5055671;28;20391;-26
2022/12/19 02:44:41;;;;;;;59.22;27.63;;;1.10;99.90;;;;;;5055230;28;20044;-26
2022/12/19 02:47:08;;;;;;;59.33;29.92;;;1.10;99.90;;;;;;5037925;28;20055;-26
2022/12/19 02:49:35;;;;;;;51.33;25.77;;;1.10;99.90;;;;;;5037504;28;20052;-26
2022/12/19 02:52:31;;;;;;;70.50;33.33;;;1.20;99.90;;;;;;5054984;28;20124;-26
2022/12/19 02:55:04;;;;;;;67.47;31.88;;;1.10;99.90;;;;;;5037366;28;20526;-26
2022/12/19 02:57:52;;;;;;;69.65;32.58;;;1.00;99.90;;;;;;5038284;28;20195;-26
2022/12/19 03:00:24;;;;;;;70.80;32.25;;;1.00;99.90;;;;;;5055503;28;20045;-26
2022/12/19 03:03:16;;;;;;;77.82;34.35;;;1.00;99.90;;;;;;5055347;28;20084;-26
2022/12/19 03:05:53;;;;;;;83.32;34.53;;;1.00;99.90;;;;;;5055677;28;20056;-26
2022/12/19 03:08:49;;;;;;;76.97;34.67;;;1.00;99.90;;;;;;5054826;28;20084;-26
2022/12/19 03:11:15;;;;;;;79.35;35.05;;;1.00;99.90;;;;;;5054687;28;20057;-26
2022/12/19 03:14:06;;;;;;;85.50;37.17;;;1.00;99.90;;;;;;5054535;28;20048;-26
2022/12/19 03:16:35;;;;;;;72.75;33.35;;;1.10;99.90;;;;;;5053991;28;20057;-26
2022/12/19 03:19:01;;;;;;;87.00;38.25;;;1.20;99.90;;;;;;5054804;28;20052;-26
2022/12/19 03:21:46;;;;;;;77.40;36.97;;;1.20;99.90;;;;;;5054186;28;20037;-26
2022/12/19 03:24:12;;;;;;;79.85;36.72;;;1.20;99.90;;;;;;5054724;28;20052;-25
2022/12/19 03:26:52;;;;;;;78.10;36.92;;;1.30;99.90;;;;;;5054409;28;20036;-25
2022/12/19 03:29:40;;;;;;;84.78;35.83;;;1.30;99.90;;;;;;5054668;28;20045;-26
2022/12/19 03:32:10;;;;;;;78.60;38.45;;;1.40;99.90;;;;;;5054566;28;20467;-26
2022/12/19 03:34:49;;;;;;;79.47;37.33;;;1.40;99.90;;;;;;5054189;28;20053;-26
2022/12/19 03:37:19;;;;;;;82.03;36.80;;;1.40;99.90;;;;;;5054458;28;20503;-26
2022/12/19 03:39:49;;;;;;;77.82;38.33;;;1.40;99.90;;;;;;5054790;28;20057;-26
2022/12/19 03:45:05;;;;;;;78.22;39.38;;;1.50;99.90;;;;;;5054863;28;20084;-25
2022/12/19 03:47:39;;;;;;;93.50;40.88;;;1.50;99.90;;;;;;5053992;28;20071;-25
2022/12/19 03:50:06;;;;;;;86.78;36.53;;;1.50;99.90;;;;;;5054523;28;20049;-25
2022/12/19 03:52:54;;;;;;;84.30;38.80;;;1.50;99.90;;;;;;5053894;28;20128;-25
2022/12/19 03:55:33;;;;;;;90.15;38.78;;;1.60;99.90;;;;;;5054199;28;20518;-25
2022/12/19 03:58:08;;;;;;;82.05;35.30;;;1.60;99.90;;;;;;5054201;28;20052;-25
2022/12/19 04:00:36;;;;;;;98.20;40.05;;;1.70;99.90;;;;;;5054032;28;20041;-25
2022/12/19 04:03:05;;;;;;;93.80;43.13;;;1.60;99.90;;;;;;5053732;28;20123;-25
2022/12/19 04:05:32;;;;;;;99.77;41.67;;;1.70;99.90;;;;;;5053765;28;20490;-25
2022/12/19 04:08:05;;;;;;;102.82;42.53;;;1.60;99.90;;;;;;5053783;28;20159;-25
2022/12/19 04:10:37;;;;;;;102.88;42.70;;;1.70;99.90;;;;;;5053734;28;20049;-25
2022/12/19 04:13:12;;;;;;;103.60;44.97;;;1.60;99.90;;;;;;5036438;28;20115;-25
2022/12/19 04:16:11;;;;;;;100.32;46.58;;;1.70;99.90;;;;;;5053654;28;20056;-24
2022/12/19 04:18:40;;;;;;;114.88;45.72;;;1.70;99.90;;;;;;5053917;28;20052;-24
2022/12/19 04:21:38;;;;;;;103.97;46.10;;;1.70;99.90;;;;;;5053470;28;20049;-24
2022/12/19 04:24:10;;;;;;;97.80;47.10;;;1.80;99.90;;;;;;5046873;28;20060;-24
2022/12/19 04:26:38;;;;;;;95.63;44.47;;;1.80;99.90;;;;;;5036522;28;20349;-24
2022/12/19 04:29:06;;;;;;;97.15;44.03;;;1.90;99.90;;;;;;5054303;28;20128;-24
2022/12/19 04:31:34;;;;;;;98.93;45.30;;;1.90;99.90;;;;;;5053986;28;20091;-24
2022/12/19 04:34:00;;;;;;;89.68;40.80;;;1.90;99.90;;;;;;5057203;28;20557;-24
2022/12/19 04:36:26;;;;;;;88.47;41.30;;;2.10;99.90;;;;;;5023355;28;20045;-24
2022/12/19 04:38:52;;;;;;;95.68;42.30;;;2.10;99.90;;;;;;5057599;28;20152;-24
2022/12/19 04:41:17;;;;;;;92.07;38.93;;;2.10;99.90;;;;;;5057411;28;20550;-24
2022/12/19 04:43:43;;;;;;;93.45;41.53;;;2.50;99.90;;;;;;5058296;28;20059;-24
2022/12/19 04:46:09;;;;;;;80.80;36.80;;;2.10;99.90;;;;;;5057374;28;20049;-24
2022/12/19 04:48:35;;;;;;;79.20;37.78;;;2.20;99.90;;;;;;5057383;28;20045;-24
2022/12/19 04:51:01;;;;;;;86.00;39.05;;;2.20;99.90;;;;;;5057323;28;20045;-24
2022/12/19 04:53:27;;;;;;;90.85;42.10;;;2.20;99.90;;;;;;5057304;28;20088;-24
2022/12/19 04:56:05;;;;;;;86.53;41.15;;;2.20;99.90;;;;;;5039360;28;20052;-24
2022/12/19 04:58:31;;;;;;;86.85;38.22;;;2.20;99.90;;;;;;5058084;28;20118;-24
2022/12/19 05:01:04;;;;;;;84.03;41.60;;;2.20;99.90;;;;;;5057056;28;20044;-24
2022/12/19 05:03:31;;;;;;;94.67;41.27;;;2.20;99.90;;;;;;5057680;28;20433;-24
2022/12/19 05:06:11;;;;;;;98.73;42.20;;;2.50;99.90;;;;;;5057034;28;20099;-24
2022/12/19 05:08:39;;;;;;;85.60;34.87;;;2.30;99.90;;;;;;5056996;28;20045;-24
2022/12/19 05:11:07;;;;;;;96.50;43.72;;;2.40;99.90;;;;;;5056953;28;20098;-24
2022/12/19 05:13:32;;;;;;;86.67;43.53;;;2.40;99.90;;;;;;5056886;28;20118;-25
2022/12/19 05:16:00;;;;;;;90.10;38.38;;;2.40;99.90;;;;;;5038584;28;20108;-24
2022/12/19 05:18:27;;;;;;;100.73;45.23;;;2.40;99.90;;;;;;5056835;28;20049;-24
2022/12/19 05:20:53;;;;;;;83.93;37.63;;;2.40;99.90;;;;;;5039348;28;20057;-24
2022/12/19 05:23:19;;;;;;;106.72;43.25;;;2.50;99.90;;;;;;5056676;28;20093;-24
2022/12/19 05:25:45;;;;;;;109.47;44.10;;;2.40;99.90;;;;;;5057229;28;20048;-24
2022/12/19 05:28:11;;;;;;;98.03;44.65;;;2.50;99.90;;;;;;5057168;28;20048;-24
2022/12/19 05:30:37;;;;;;;109.73;45.43;;;2.50;99.90;;;;;;5039400;28;20045;-24
2022/12/19 05:33:02;;;;;;;111.63;46.33;;;2.50;99.90;;;;;;5038971;28;20371;-24
2022/12/19 05:35:28;;;;;;;85.30;40.35;;;2.50;99.90;;;;;;5039305;28;20464;-24
2022/12/19 05:37:54;;;;;;;96.22;43.53;;;2.60;99.90;;;;;;5056995;28;20052;-24
2022/12/19 05:40:20;;;;;;;89.47;43.77;;;2.60;99.90;;;;;;5056717;28;20392;-25
2022/12/19 05:42:46;;;;;;;112.97;45.00;;;2.70;99.90;;;;;;5038191;28;20475;-25
2022/12/19 05:45:12;;;;;;;92.47;44.60;;;2.80;99.90;;;;;;5056214;28;20132;-25
2022/12/19 05:47:37;;;;;;;100.22;43.85;;;2.80;99.90;;;;;;5056537;28;20045;-25
2022/12/19 05:50:04;;;;;;;96.15;42.20;;;2.80;99.90;;;;;;5038589;28;20045;-25
2022/12/19 05:52:31;;;;;;;90.80;41.35;;;2.90;99.90;;;;;;5056275;28;20049;-25
2022/12/19 05:54:56;;;;;;;97.15;42.97;;;2.90;99.90;;;;;;5056905;28;20044;-25
2022/12/19 05:57:23;;;;;;;96.28;41.80;;;2.90;99.90;;;;;;5056072;28;20380;-25
2022/12/19 05:59:48;;;;;;;85.70;40.80;;;3.00;99.90;;;;;;5038727;28;20045;-25
2022/12/19 06:02:17;;;;;;;72.22;32.85;;;3.30;99.90;;;;;;5055584;28;20037;-25
2022/12/19 06:04:43;;;;;;;73.55;35.58;;;2.80;99.90;;;;;;5056267;28;20041;-25
2022/12/19 06:07:08;;;;;;;76.55;35.78;;;3.00;99.90;;;;;;5056269;28;20045;-25
2022/12/19 06:09:34;;;;;;;65.63;29.95;;;3.00;99.90;;;;;;5038273;28;20053;-24
2022/12/19 06:12:00;;;;;;;60.60;31.73;;;3.10;99.90;;;;;;5038153;28;20041;-24
2022/12/19 06:14:26;;;;;;;73.55;31.25;;;3.20;99.90;;;;;;5055708;28;20597;-24
2022/12/19 06:16:51;;;;;;;64.28;32.88;;;3.20;99.90;;;;;;5055173;28;20060;-24
2022/12/19 06:19:21;;;;;;;57.13;28.55;;;3.20;99.90;;;;;;5055663;28;20052;-24
2022/12/19 06:21:46;;;;;;;57.47;32.55;;;3.30;99.90;;;;;;5055866;28;20498;-24
2022/12/19 06:24:12;;;;;;;63.25;31.48;;;3.30;99.90;;;;;;5056375;28;20131;-24
2022/12/19 06:26:38;;;;;;;65.07;32.03;;;3.70;99.90;;;;;;5055538;28;20131;-24
2022/12/19 06:29:04;;;;;;;69.85;34.17;;;3.70;99.90;;;;;;5055494;28;20040;-24
2022/12/19 06:31:30;;;;;;;59.22;29.48;;;3.40;99.90;;;;;;5055469;28;20480;-24
2022/12/19 06:33:55;;;;;;;59.65;29.92;;;3.40;99.90;;;;;;5038073;28;20049;-25
2022/12/19 06:36:24;;;;;;;59.13;30.45;;;3.40;99.90;;;;;;5055872;28;20059;-24
2022/12/19 06:38:50;;;;;;;58.90;28.35;;;3.40;99.90;;;;;;5055306;28;20112;-24
2022/12/19 06:44:04;;;;;;;55.63;27.85;;;3.40;99.90;;;;;;5055786;28;20056;-25
2022/12/19 06:46:30;;;;;;;64.50;31.30;;;3.50;99.90;;;;;;5055450;28;20045;-24
2022/12/19 06:48:56;;;;;;;49.63;27.42;;;3.50;99.90;;;;;;5037556;28;20517;-25
2022/12/19 06:51:22;;;;;;;53.78;27.35;;;3.60;99.90;;;;;;5037506;28;20053;-25
2022/12/19 06:53:51;;;;;;;54.22;30.55;;;3.60;99.90;;;;;;5037707;28;20052;-25
2022/12/19 06:56:17;;;;;;;62.92;29.30;;;3.80;99.90;;;;;;5054154;28;20102;-25
2022/12/19 06:58:43;;;;;;;41.53;22.38;;;3.70;99.90;;;;;;5054960;28;20517;-25
2022/12/19 07:01:55;;;;;;;52.15;28.08;;;3.70;99.90;;;;;;5054819;28;20037;-25
2022/12/19 07:04:29;;;;;;;48.10;27.33;;;3.90;99.90;;;;;;4954563;29;20059;-25
2022/12/19 07:06:56;;;;;;;25.50;14.38;;;3.90;99.90;;;;;;5046969;28;20384;-26
2022/12/19 07:09:22;;;;;;;52.42;26.15;;;3.80;99.90;;;;;;5055532;28;20104;-25
2022/12/19 07:11:48;;;;;;;43.72;23.85;;;4.10;99.90;;;;;;5036896;28;20037;-25
2022/12/19 07:14:13;;;;;;;36.13;22.63;;;3.90;99.90;;;;;;5054662;28;20045;-25
2022/12/19 07:16:40;;;;;;;44.58;25.75;;;4.00;99.90;;;;;;5054435;28;20060;-25
2022/12/19 07:19:07;;;;;;;36.45;20.67;;;3.90;99.90;;;;;;5037529;28;20509;-26
2022/12/19 07:21:33;;;;;;;37.05;20.83;;;4.00;99.90;;;;;;5036680;28;20134;-25
2022/12/19 07:24:00;;;;;;;33.95;20.67;;;4.10;99.90;;;;;;5054459;28;20100;-25
2022/12/19 07:26:26;;;;;;;52.95;27.55;;;4.10;99.90;;;;;;5036693;28;20052;-26
2022/12/19 07:28:52;;;;;;;41.85;21.95;;;4.10;99.90;;;;;;5054037;28;20495;-25
2022/12/19 07:31:18;;;;;;;42.55;23.33;;;4.20;99.90;;;;;;5054361;28;20049;-25
2022/12/19 07:33:44;;;;;;;33.85;20.10;;;4.00;99.90;;;;;;5020127;28;20574;-25
2022/12/19 07:36:10;;;;;;;29.40;17.60;;;4.30;99.90;;;;;;5054234;28;20127;-25
2022/12/19 07:38:36;;;;;;;47.75;23.92;;;4.30;99.90;;;;;;5036421;28;20068;-25
2022/12/19 07:41:02;;;;;;;36.97;22.75;;;4.30;99.90;;;;;;5036273;28;20415;-26
2022/12/19 07:43:28;;;;;;;38.03;21.38;;;4.30;99.90;;;;;;5020352;28;20049;-26
2022/12/19 07:45:54;;;;;;;40.08;23.13;;;4.20;99.90;;;;;;5054075;28;20041;-26
2022/12/19 07:48:22;;;;;;;45.50;24.77;;;4.40;99.90;;;;;;5054559;28;20099;-27
2022/12/19 07:50:48;;;;;;;45.28;23.65;;;4.50;99.90;;;;;;5036750;28;20433;-27
2022/12/19 07:53:17;;;;;;;35.75;20.45;;;4.10;99.90;;;;;;5054210;28;20053;-26
2022/12/19 07:55:42;;;;;;;40.78;22.73;;;4.30;99.90;;;;;;5054197;28;20049;-27
2022/12/19 07:58:09;;;;;;;36.85;20.38;;;4.20;99.90;;;;;;5054689;28;20127;-28
2022/12/19 08:00:35;;;;;;;46.42;21.73;;;4.50;99.90;;;;;;5053846;28;20049;-27
2022/12/19 08:03:01;;;;;;;50.72;24.88;;;4.50;99.90;;;;;;5019498;28;20163;-27
2022/12/19 08:05:27;;;;;;;43.85;26.38;;;4.70;99.90;;;;;;5053838;28;20080;-27
2022/12/19 08:07:53;;;;;;;36.53;19.58;;;4.50;99.90;;;;;;5053876;28;20044;-28
2022/12/19 08:10:21;;;;;;;39.65;21.02;;;4.50;99.90;;;;;;5053368;28;20523;-28
2022/12/19 08:12:47;;;;;;;25.83;14.15;;;4.60;99.90;;;;;;5053742;28;20048;-27
2022/12/19 08:15:13;;;;;;;25.20;14.23;;;4.80;99.90;;;;;;5053190;28;20057;-28
2022/12/19 08:17:39;;;;;;;39.30;23.13;;;4.80;99.90;;;;;;5036128;28;20045;-28
2022/12/19 08:20:06;;;;;;;29.25;18.33;;;4.60;99.90;;;;;;5036782;28;20136;-27
2022/12/19 08:22:32;;;;;;;21.70;14.23;;;4.80;99.90;;;;;;5035633;28;20495;-28
2022/12/19 08:24:58;;;;;;;30.58;17.20;;;4.70;99.90;;;;;;5054013;28;20052;-28
2022/12/19 08:27:25;;;;;;;36.15;20.45;;;4.70;99.90;;;;;;5019351;28;20147;-28
2022/12/19 08:29:51;;;;;;;24.52;16.00;;;5.00;99.90;;;;;;5053485;28;20060;-28
2022/12/19 08:32:17;;;;;;;19.30;12.43;;;5.10;99.90;;;;;;5036102;28;20053;-28
2022/12/19 08:34:43;;;;;;;30.23;16.15;;;5.10;99.90;;;;;;5035965;28;20131;-29
2022/12/19 08:37:09;;;;;;;25.48;15.48;;;5.20;99.90;;;;;;5036629;28;20481;-28
2022/12/19 08:39:35;;;;;;;25.15;16.60;;;4.90;99.90;;;;;;5035718;28;20141;-28
2022/12/19 08:42:01;;;;;;;29.50;16.27;;;5.20;99.90;;;;;;5035600;28;20091;-28
2022/12/19 08:44:27;;;;;;;28.15;15.95;;;4.90;99.90;;;;;;5053638;28;20052;-28
2022/12/19 08:46:53;;;;;;;23.83;14.82;;;5.20;99.90;;;;;;5053307;28;20468;-28
2022/12/19 08:49:19;;;;;;;22.75;14.23;;;5.00;99.90;;;;;;5053304;28;20043;-28
2022/12/19 08:51:45;;;;;;;21.55;12.45;;;5.00;99.90;;;;;;5053313;28;20041;-28
2022/12/19 08:54:11;;;;;;;23.83;15.00;;;5.30;99.90;;;;;;5035450;28;20137;-27
2022/12/19 08:56:38;;;;;;;24.52;15.80;;;5.30;99.90;;;;;;5053808;28;20547;-28
2022/12/19 08:59:03;;;;;;;25.77;15.90;;;5.20;99.90;;;;;;5053752;28;20052;-28
2022/12/19 09:01:29;;;;;;;33.05;20.17;;;5.40;99.90;;;;;;5053088;28;20124;-28
2022/12/19 09:03:58;;;;;;;21.88;12.23;;;5.20;99.90;;;;;;5053459;28;20045;-28
2022/12/19 09:06:25;;;;;;;30.67;17.88;;;5.50;99.90;;;;;;5036344;28;20045;-28
2022/12/19 09:08:51;;;;;;;21.55;14.63;;;5.30;99.90;;;;;;5053636;28;20462;-28
2022/12/19 09:11:19;;;;;;;32.42;20.02;;;5.40;99.90;;;;;;5053079;28;20044;-28
2022/12/19 09:13:46;;;;;;;34.17;20.10;;;5.30;99.90;;;;;;5035453;28;20053;-28
2022/12/19 09:16:16;;;;;;;25.30;17.55;;;5.60;99.90;;;;;;5034882;28;20088;-29
2022/12/19 09:18:44;;;;;;;30.80;20.60;;;5.50;99.90;;;;;;5036938;28;20071;-29
2022/12/19 09:21:10;;;;;;;27.50;16.10;;;5.50;99.90;;;;;;5056769;28;20153;-29
2022/12/19 09:23:36;;;;;;;26.50;17.33;;;5.60;99.90;;;;;;5056762;28;20080;-29
2022/12/19 09:26:06;;;;;;;32.55;21.95;;;5.80;99.90;;;;;;5056664;28;20049;-29
2022/12/19 09:28:32;;;;;;;25.95;17.05;;;5.70;99.90;;;;;;5039957;28;20117;-27
2022/12/19 09:31:04;;;;;;;30.13;20.02;;;6.10;99.90;;;;;;5056608;28;20041;-27
2022/12/19 09:33:32;;;;;;;26.92;18.58;;;5.70;99.90;;;;;;5039552;28;20052;-27
2022/12/19 09:35:58;;;;;;;22.15;14.85;;;5.70;99.90;;;;;;5056416;28;20052;-27
2022/12/19 09:38:26;;;;;;;32.95;21.33;;;6.10;99.90;;;;;;5057043;28;20399;-28
2022/12/19 09:41:01;;;;;;;29.05;19.77;;;5.70;99.90;;;;;;5056318;28;20053;-27
2022/12/19 09:43:38;;;;;;;30.55;21.40;;;6.10;99.90;;;;;;5056683;28;20095;-28
2022/12/19 09:46:18;;;;;;;27.10;19.73;;;5.70;99.90;;;;;;5056415;28;20048;-27
2022/12/19 09:48:52;;;;;;;27.60;17.83;;;5.70;99.90;;;;;;5056551;28;20466;-27
2022/12/19 09:51:37;;;;;;;29.67;18.77;;;5.90;99.90;;;;;;5038574;28;20048;-27
2022/12/19 09:54:25;;;;;;;36.95;22.77;;;6.20;99.90;;;;;;5056474;28;20048;-27
2022/12/19 09:56:56;;;;;;;29.70;20.27;;;6.30;99.90;;;;;;5056090;28;20132;-28
2022/12/19 09:59:41;;;;;;;34.47;23.40;;;5.90;99.90;;;;;;5056110;28;20483;-27
2022/12/19 10:02:20;;;;;;;37.35;24.35;;;6.10;99.90;;;;;;5038271;28;20044;-27
2022/12/19 10:04:53;;;;;;;29.10;18.13;;;5.90;99.90;;;;;;5056015;28;20080;-28
2022/12/19 10:07:21;;;;;;;26.45;17.23;;;5.90;99.90;;;;;;5038655;28;20048;-28
2022/12/19 10:09:47;;;;;;;21.20;13.82;;;6.20;99.90;;;;;;5038875;28;20391;-28
2022/12/19 10:12:31;;;;;;;24.20;16.38;;;6.40;99.90;;;;;;5055857;28;20041;-28
2022/12/19 10:15:06;;;;;;;26.25;18.95;;;6.40;99.90;;;;;;5055590;28;20091;-28
2022/12/19 10:17:59;;;;;;;36.85;23.05;;;6.60;99.90;;;;;;5038754;28;20511;-28
2022/12/19 10:20:39;;;;;;;27.00;18.67;;;6.50;99.90;;;;;;5056321;28;20055;-28
2022/12/19 10:23:19;;;;;;;22.40;16.80;;;6.30;99.90;;;;;;5055583;28;20045;-28
2022/12/19 10:25:56;;;;;;;28.75;21.98;;;6.70;99.90;;;;;;5055673;28;20055;-28
2022/12/19 10:28:55;;;;;;;31.48;20.95;;;6.90;99.90;;;;;;5056191;28;20429;-28
2022/12/19 10:31:43;;;;;;;25.13;18.52;;;6.90;99.90;;;;;;5035039;28;20057;-28
2022/12/19 10:34:20;;;;;;;24.10;16.70;;;6.70;99.90;;;;;;5055459;28;20110;-28
2022/12/19 10:36:51;;;;;;;26.13;18.05;;;6.70;99.90;;;;;;5055407;28;20049;-28
2022/12/19 10:39:43;;;;;;;20.63;14.88;;;6.70;99.90;;;;;;5038121;28;20040;-28
2022/12/19 10:42:23;;;;;;;28.80;19.65;;;7.00;99.90;;;;;;5055255;28;20041;-28
2022/12/19 10:44:52;;;;;;;25.98;16.35;;;6.80;99.90;;;;;;5055514;28;20414;-28
2022/12/19 10:47:18;;;;;;;19.75;15.10;;;6.90;99.90;;;;;;5055477;28;20048;-28
2022/12/19 10:49:44;;;;;;;30.65;21.80;;;6.80;99.90;;;;;;5055140;28;20395;-28
2022/12/19 10:52:11;;;;;;;21.85;14.40;;;7.10;99.90;;;;;;5054982;28;20398;-28
2022/12/19 10:54:38;;;;;;;19.70;14.15;;;;;;;;;;5055007;28;20040;-29
2022/12/19 10:57:31;;;;;;;25.75;17.98;;;;;;;;;;5037160;28;20084;-29
2022/12/19 11:00:26;;;;;;;18.85;14.07;;;7.00;99.90;;;;;;5042998;28;20407;-29
2022/12/19 11:03:08;;;;;;;21.52;15.57;;;;;;;;;;5051002;28;20443;-29
2022/12/19 11:05:50;;;;;;;24.95;18.20;;;7.40;99.90;;;;;;5054875;28;20060;-29
2022/12/19 11:08:27;;;;;;;17.98;13.55;;;;;;;;;;5054682;28;20055;-29
2022/12/19 11:10:56;;;;;;;18.15;12.40;;;;;;;;;;5021178;28;20545;-29
2022/12/19 11:13:28;;;;;;;23.15;16.67;;;7.30;99.90;;;;;;5055090;28;20091;-28
2022/12/19 11:15:58;;;;;;;19.60;15.25;;;;;;;;;;5054059;28;20581;-29
2022/12/19 11:18:34;;;;;;;20.83;14.40;;;7.30;99.90;;;;;;5052116;28;20106;-27
2022/12/19 11:21:01;;;;;;;16.55;12.20;;;7.30;99.90;;;;;;5068405;28;20040;-27
2022/12/19 11:23:28;;;;;;;21.50;14.57;;;7.20;99.90;;;;;;5036838;28;20137;-27
2022/12/19 11:26:00;;;;;;;23.52;17.48;;;7.30;99.90;;;;;;5054466;28;20055;-27
2022/12/19 11:28:33;;;;;;;17.65;13.10;;;7.60;99.90;;;;;;5037020;28;20095;-27
2022/12/19 11:31:17;;;;;;;18.55;13.38;;;7.50;99.90;;;;;;5020468;28;20053;-27
2022/12/19 11:33:52;;;;;;;22.05;12.48;;;7.50;99.90;;;;;;5054634;28;20462;-27
2022/12/19 11:36:59;;;;;;;16.60;11.68;;;7.60;99.90;;;;;;5054313;28;20045;-27
2022/12/19 11:39:55;;;;;;;18.10;12.60;;;7.80;99.90;;;;;;4983996;28;20140;-27
2022/12/19 11:42:29;;;;;;;17.08;12.98;;;7.90;99.90;;;;;;5053703;28;20037;-27
2022/12/19 11:45:05;;;;;;;22.52;15.60;;;7.90;99.90;;;;;;5054133;28;20045;-27
2022/12/19 11:47:47;;;;;;;16.95;11.52;;;7.90;99.90;;;;;;5036392;28;20486;-27
2022/12/19 11:50:22;;;;;;;12.07;9.10;;;7.90;99.90;;;;;;5036795;28;20064;-27
2022/12/19 11:53:00;;;;;;;14.05;10.18;;;7.80;99.90;;;;;;5054346;28;20048;-27
2022/12/19 11:55:38;;;;;;;19.70;14.65;;;7.80;99.90;;;;;;5054805;28;20049;-27
2022/12/19 11:58:03;;;;;;;17.10;12.07;;;7.90;99.90;;;;;;5053870;28;20051;-28
2022/12/19 12:00:30;;;;;;;21.02;13.95;;;7.90;99.90;;;;;;5053833;28;20052;-27
2022/12/19 12:03:21;;;;;;;18.92;14.43;;;7.80;99.90;;;;;;5053732;28;20077;-28
2022/12/19 12:05:48;;;;;;;15.45;11.50;;;7.80;99.90;;;;;;5036118;28;20049;-27
2022/12/19 12:08:17;;;;;;;14.00;8.90;;;7.70;99.90;;;;;;5053746;28;20056;-27
2022/12/19 12:11:06;;;;;;;20.58;12.32;;;7.90;99.90;;;;;;5036045;28;20210;-27
2022/12/19 12:13:57;;;;;;;18.70;11.30;;;7.90;99.90;;;;;;5053739;28;20053;-27
2022/12/19 12:16:36;;;;;;;17.33;12.85;;;8.00;99.90;;;;;;5053496;28;20056;-27
2022/12/19 12:19:19;;;;;;;17.58;12.13;;;8.10;99.90;;;;;;5054507;28;20186;-27
2022/12/19 12:22:08;;;;;;;17.27;10.60;;;8.00;99.90;;;;;;5036787;28;20540;-27
2022/12/19 12:24:45;;;;;;;16.25;12.45;;;8.00;99.90;;;;;;5053861;28;20414;-27
2022/12/19 12:27:42;;;;;;;16.02;10.77;;;8.00;99.90;;;;;;5054415;28;20403;-27
2022/12/19 12:30:17;;;;;;;20.95;11.45;;;8.00;99.90;;;;;;5052800;28;20128;-27
2022/12/19 12:32:45;;;;;;;14.77;12.73;;;8.00;99.90;;;;;;5032552;28;21743;-27
2022/12/19 12:35:22;;;;;;;14.15;9.82;;;8.00;99.90;;;;;;5033538;28;20092;-27
2022/12/19 12:38:05;;;;;;;17.13;11.35;;;8.00;99.90;;;;;;5034072;28;20400;-27
2022/12/19 12:40:34;;;;;;;;;;;7.90;99.90;;;;;;5017174;28;20424;-27
2022/12/19 12:43:18;;;;;;;12.52;8.93;;;8.00;99.90;;;;;;5033463;28;20011;-26
2022/12/19 12:45:44;;;;;;;20.40;14.77;;;7.90;99.90;;;;;;5034360;28;20056;-27
2022/12/19 12:48:22;;;;;;;16.13;11.85;;;7.80;99.90;;;;;;5033492;28;20416;-26
2022/12/19 12:50:49;;;;;;;13.55;9.82;;;7.90;99.90;;;;;;5033469;28;20049;-26
2022/12/19 12:53:25;;;;;;;16.88;11.60;;;7.90;99.90;;;;;;5034670;28;20080;-26
2022/12/19 12:55:54;;;;;;;16.95;11.80;;;7.90;99.90;;;;;;5036456;28;20530;-26
2022/12/19 12:58:50;;;;;;;15.48;11.70;;;7.90;99.90;;;;;;5037065;28;20492;-27
2022/12/19 13:01:27;;;;;;;17.45;12.02;;;8.00;99.90;;;;;;5037161;28;20049;-26
2022/12/19 13:04:11;;;;;;;16.77;12.57;;;7.90;99.90;;;;;;5037855;28;20068;-27
2022/12/19 13:07:01;;;;;;;17.10;12.60;;;7.90;99.90;;;;;;5036004;28;20049;-27